Time;durP1;ratioP1;P1;durP2;ratioP2;P2;SDS_P1;SDS_P2;PMS_P1;PMS_P2;Temp;Humidity;BMP_temperature;BMP_pressure;BME280_temperature;BME280_humidity;BME280_pressure;Samples;Min_cycle;Max_cycle;Signal;HPM_P1;HPM_P2
2023/06/29 00:01:42;;;;;;;0.30;0.28;;;;;;;;;;5037825;28;20063;-82
2023/06/29 00:04:08;;;;;;;0.20;0.20;;;;;;;;;;5051169;28;20275;-82
2023/06/29 00:06:36;;;;;;;0.43;0.22;;;;;;;;;;5030632;28;20064;-81
2023/06/29 00:09:02;;;;;;;0.85;0.40;;;;;;;;;;5037410;28;20571;-82
2023/06/29 00:11:28;;;;;;;0.43;0.35;;;;;;;;;;5054230;28;20531;-82
2023/06/29 00:13:55;;;;;;;0.20;0.10;;;;;;;;;;5074461;28;20482;-83
2023/06/29 00:16:22;;;;;;;0.20;0.20;;;;;;;;;;5050380;28;20024;-83
2023/06/29 00:18:49;;;;;;;0.20;0.13;;;;;;;;;;5055983;28;20032;-81
2023/06/29 00:21:16;;;;;;;0.20;0.10;;;;;;;;;;5075205;28;20044;-83
2023/06/29 00:23:42;;;;;;;0.40;0.20;;;;;;;;;;5068129;28;20066;-82
2023/06/29 00:26:10;;;;;;;0.30;0.20;;;;;;;;;;5053881;28;20044;-82
2023/06/29 00:28:36;;;;;;;0.63;0.30;;;;;;;;;;5064524;28;20064;-82
2023/06/29 00:31:02;;;;;;;0.20;0.20;;;;;;;;;;5053027;28;21688;-82
2023/06/29 00:33:29;;;;;;;1.30;0.85;;;;;;;;;;5069805;28;20032;-82
2023/06/29 00:35:55;;;;;;;0.22;0.20;;;;;;;;;;5057836;28;20277;-82
2023/06/29 00:38:21;;;;;;;0.40;0.40;;;;;;;;;;5053823;28;20029;-82
2023/06/29 00:40:48;;;;;;;0.20;0.10;;;;;;;;;;5051528;28;20082;-82
2023/06/29 00:43:14;;;;;;;0.35;0.30;;;;;;;;;;5048292;28;20032;-82
2023/06/29 00:45:40;;;;;;;0.20;0.10;;;;;;;;;;5042011;28;20047;-81
2023/06/29 00:48:07;;;;;;;0.20;0.17;;;;;;;;;;5040752;28;20036;-82
2023/06/29 00:50:33;;;;;;;0.73;0.63;;;;;;;;;;5066455;28;20036;-82
2023/06/29 00:52:59;;;;;;;0.30;0.30;;;;;;;;;;5041472;28;20032;-82
2023/06/29 00:55:25;;;;;;;0.85;0.43;;;;;;;;;;5034030;28;20101;-81
2023/06/29 00:57:51;;;;;;;0.20;0.20;;;;;;;;;;5032538;28;20516;-81
2023/06/29 01:00:18;;;;;;;0.20;0.10;;;;;;;;;;5036998;28;20123;-82
2023/06/29 01:02:44;;;;;;;0.20;0.10;;;;;;;;;;5035926;28;20047;-81
2023/06/29 01:05:11;;;;;;;0.55;0.40;;;;;;;;;;5053629;28;20476;-81
2023/06/29 01:07:40;;;;;;;0.55;0.30;;;;;;;;;;5056008;28;20513;-82
2023/06/29 01:10:08;;;;;;;0.45;0.40;;;;;;;;;;5042594;28;20044;-82
2023/06/29 01:12:35;;;;;;;0.88;0.55;;;;;;;;;;5052993;28;20048;-81
2023/06/29 01:15:02;;;;;;;0.22;0.20;;;;;;;;;;5050532;28;20874;-80
2023/06/29 01:17:30;;;;;;;0.20;0.20;;;;;;;;;;5092081;22;20416;-82
2023/06/29 01:19:57;;;;;;;0.35;0.35;;;;;;;;;;5053929;28;20393;-82
2023/06/29 01:22:37;;;;;;;0.20;0.17;;;;;;;;;;5061074;28;20055;-81
2023/06/29 01:25:03;;;;;;;0.35;0.28;;;;;;;;;;5048092;28;20048;-81
2023/06/29 01:27:29;;;;;;;0.25;0.10;;;;;;;;;;5047491;28;20045;-81
2023/06/29 01:29:57;;;;;;;0.30;0.20;;;;;;;;;;5044364;28;20051;-81
2023/06/29 01:32:31;;;;;;;0.20;0.20;;;;;;;;;;5050375;28;20452;-81
2023/06/29 01:34:58;;;;;;;0.20;0.20;;;;;;;;;;5048686;28;20040;-81
2023/06/29 01:37:25;;;;;;;0.47;0.30;;;;;;;;;;5031188;28;20029;-82
2023/06/29 01:39:56;;;;;;;0.70;0.52;;;;;;;;;;5027855;28;20033;-82
2023/06/29 01:42:27;;;;;;;0.88;0.40;;;;;;;;;;5048352;28;20513;-82
2023/06/29 01:44:54;;;;;;;0.65;0.35;;;;;;;;;;5052638;28;20045;-82
2023/06/29 01:47:21;;;;;;;0.20;0.10;;;;;;;;;;5049119;28;20044;-82
2023/06/29 01:49:48;;;;;;;0.35;0.35;;;;;;;;;;5053005;28;20048;-82
2023/06/29 01:52:14;;;;;;;0.20;0.10;;;;;;;;;;5034874;28;20078;-82
2023/06/29 01:54:40;;;;;;;0.20;0.10;;;;;;;;;;5027700;28;20112;-83
2023/06/29 01:57:06;;;;;;;0.50;0.30;;;;;;;;;;5052923;28;20041;-82
2023/06/29 01:59:32;;;;;;;0.30;0.30;;;;;;;;;;5046213;28;20847;-82
2023/06/29 02:01:58;;;;;;;0.30;0.30;;;;;;;;;;5032867;28;20094;-82
2023/06/29 02:04:24;;;;;;;0.30;0.30;;;;;;;;;;5051884;28;20036;-82
2023/06/29 02:06:50;;;;;;;0.43;0.43;;;;;;;;;;5030436;28;20036;-82
2023/06/29 02:09:16;;;;;;;0.28;0.25;;;;;;;;;;5052045;28;20037;-82
2023/06/29 02:11:43;;;;;;;0.63;0.38;;;;;;;;;;5048131;28;20072;-81
2023/06/29 02:14:09;;;;;;;0.30;0.30;;;;;;;;;;5030901;28;20386;-81
2023/06/29 02:16:35;;;;;;;0.70;0.60;;;;;;;;;;5048188;28;20041;-81
2023/06/29 02:19:01;;;;;;;0.50;0.38;;;;;;;;;;5033199;28;20043;-81
2023/06/29 02:21:28;;;;;;;0.20;0.10;;;;;;;;;;5035267;28;20559;-81
2023/06/29 02:23:54;;;;;;;0.28;0.10;;;;;;;;;;5050350;28;20041;-81
2023/06/29 02:26:20;;;;;;;0.20;0.13;;;;;;;;;;5038096;28;20498;-81
2023/06/29 02:28:47;;;;;;;0.20;0.20;;;;;;;;;;5070553;28;20032;-81
2023/06/29 02:31:13;;;;;;;0.30;0.22;;;;;;;;;;5032041;28;20045;-80
2023/06/29 02:33:39;;;;;;;0.20;0.10;;;;;;;;;;5053166;28;20107;-81
2023/06/29 02:36:05;;;;;;;0.30;0.25;;;;;;;;;;5036000;28;20065;-81
2023/06/29 02:38:31;;;;;;;0.47;0.38;;;;;;;;;;5033395;28;20041;-80
2023/06/29 02:40:57;;;;;;;0.43;0.40;;;;;;;;;;5053074;28;20044;-80
2023/06/29 02:43:23;;;;;;;0.30;0.30;;;;;;;;;;5050154;28;20727;-80
2023/06/29 02:45:49;;;;;;;0.20;0.10;;;;;;;;;;5035569;28;20123;-80
2023/06/29 02:48:15;;;;;;;0.80;0.80;;;;;;;;;;5048584;28;20409;-80
2023/06/29 02:50:41;;;;;;;0.50;0.50;;;;;;;;;;5036953;28;20041;-82
2023/06/29 02:53:07;;;;;;;1.50;1.40;;;;;;;;;;5044209;28;20037;-81
2023/06/29 02:55:33;;;;;;;0.93;0.93;;;;;;;;;;5051844;28;20037;-78
2023/06/29 02:57:59;;;;;;;1.33;0.47;;;;;;;;;;5046242;28;20052;-78
2023/06/29 03:00:25;;;;;;;1.17;1.08;;;;;;;;;;5047807;28;20075;-77
2023/06/29 03:02:51;;;;;;;0.30;0.22;;;;;;;;;;5034114;28;20043;-79
2023/06/29 03:05:17;;;;;;;0.40;0.20;;;;;;;;;;5043652;28;20045;-78
2023/06/29 03:07:43;;;;;;;0.65;0.52;;;;;;;;;;5031051;28;20033;-78
2023/06/29 03:10:09;;;;;;;1.05;1.02;;;;;;;;;;5049488;28;20497;-78
2023/06/29 03:12:35;;;;;;;0.73;0.30;;;;;;;;;;5049633;28;20408;-80
2023/06/29 03:15:01;;;;;;;0.20;0.13;;;;;;;;;;5021016;28;20036;-81
2023/06/29 03:17:27;;;;;;;0.20;0.10;;;;;;;;;;5043166;28;20055;-82
2023/06/29 03:19:54;;;;;;;0.73;0.55;;;;;;;;;;5034070;28;20032;-81
2023/06/29 03:22:20;;;;;;;0.40;0.40;;;;;;;;;;5050058;28;20045;-80
2023/06/29 03:24:46;;;;;;;0.40;0.40;;;;;;;;;;5036740;28;20037;-81
2023/06/29 03:27:12;;;;;;;1.52;0.95;;;;;;;;;;5045013;28;20419;-80
2023/06/29 03:29:38;;;;;;;0.45;0.32;;;;;;;;;;5030879;28;20149;-80
2023/06/29 03:32:04;;;;;;;0.20;0.20;;;;;;;;;;5049419;28;21962;-80
2023/06/29 03:34:30;;;;;;;0.38;0.38;;;;;;;;;;5032212;28;20060;-80
2023/06/29 03:36:56;;;;;;;0.40;0.40;;;;;;;;;;5043960;28;20073;-81
2023/06/29 03:39:22;;;;;;;0.20;0.20;;;;;;;;;;5040612;28;20044;-81
2023/06/29 03:41:48;;;;;;;0.73;0.30;;;;;;;;;;5031869;28;20439;-81
2023/06/29 03:44:14;;;;;;;0.20;0.10;;;;;;;;;;5034794;28;20040;-81
2023/06/29 03:46:41;;;;;;;1.05;0.43;;;;;;;;;;5047821;28;20067;-81
2023/06/29 03:49:07;;;;;;;0.30;0.22;;;;;;;;;;5051624;28;20040;-80
2023/06/29 03:51:33;;;;;;;0.28;0.22;;;;;;;;;;5045699;28;20048;-81
2023/06/29 03:53:59;;;;;;;1.23;1.08;;;;;;;;;;5044927;28;20397;-81
2023/06/29 03:56:25;;;;;;;0.40;0.30;;;;;;;;;;5052024;28;20036;-80
2023/06/29 03:58:52;;;;;;;0.95;0.43;;;;;;;;;;5046150;28;20032;-80
2023/06/29 04:01:18;;;;;;;0.20;0.20;;;;;;;;;;5043088;28;20052;-80
2023/06/29 04:03:44;;;;;;;0.20;0.20;;;;;;;;;;5036858;28;20045;-80
2023/06/29 04:06:10;;;;;;;0.57;0.57;;;;;;;;;;5029806;28;21554;-79
2023/06/29 04:08:36;;;;;;;0.52;0.45;;;;;;;;;;5042903;28;20044;-77
2023/06/29 04:11:02;;;;;;;0.20;0.15;;;;;;;;;;5044106;28;20071;-78
2023/06/29 04:13:28;;;;;;;0.30;0.20;;;;;;;;;;5042822;28;20606;-79
2023/06/29 04:15:54;;;;;;;2.38;0.52;;;;;;;;;;5050065;28;20909;-78
2023/06/29 04:18:21;;;;;;;1.00;0.30;;;;;;;;;;5051467;28;20033;-78
2023/06/29 04:20:47;;;;;;;1.25;1.15;;;;;;;;;;5036934;28;20101;-79
2023/06/29 04:23:15;;;;;;;2.58;0.98;;;;;;;;;;5047949;28;20494;-78
2023/06/29 04:25:44;;;;;;;1.17;1.08;;;;;;;;;;5037271;28;20048;-78
2023/06/29 04:28:12;;;;;;;0.55;0.55;;;;;;;;;;5060399;28;20048;-78
2023/06/29 04:30:41;;;;;;;0.90;0.43;;;;;;;;;;5047622;28;20048;-78
2023/06/29 04:33:11;;;;;;;1.55;0.75;;;;;;;;;;5050033;28;20040;-79
2023/06/29 04:35:40;;;;;;;1.45;0.45;;;;;;;;;;5025544;28;20171;-78
2023/06/29 04:38:08;;;;;;;0.20;0.20;;;;;;;;;;5043793;28;20921;-78
2023/06/29 04:40:34;;;;;;;0.20;0.10;;;;;;;;;;5019582;28;20128;-78
2023/06/29 04:43:00;;;;;;;0.63;0.63;;;;;;;;;;5051100;28;20071;-78
2023/06/29 04:45:26;;;;;;;0.55;0.35;;;;;;;;;;5026677;28;20487;-79
2023/06/29 04:47:54;;;;;;;0.35;0.35;;;;;;;;;;5030008;28;20055;-79
2023/06/29 04:50:25;;;;;;;0.40;0.32;;;;;;;;;;5050104;28;20424;-78
2023/06/29 04:52:52;;;;;;;0.35;0.35;;;;;;;;;;5033369;28;20048;-78
2023/06/29 04:55:18;;;;;;;0.20;0.20;;;;;;;;;;5047610;28;20274;-78
2023/06/29 04:57:44;;;;;;;0.70;0.60;;;;;;;;;;5024762;28;20397;-80
2023/06/29 05:00:11;;;;;;;0.55;0.38;;;;;;;;;;5034928;28;20036;-78
2023/06/29 05:02:38;;;;;;;0.22;0.15;;;;;;;;;;5037605;28;20044;-79
2023/06/29 05:05:04;;;;;;;0.40;0.38;;;;;;;;;;5047293;28;20051;-78
2023/06/29 05:07:30;;;;;;;0.50;0.38;;;;;;;;;;5044617;28;20750;-79
2023/06/29 05:09:58;;;;;;;0.40;0.40;;;;;;;;;;5048660;28;20052;-79
2023/06/29 05:12:24;;;;;;;0.55;0.52;;;;;;;;;;5034063;28;20575;-79
2023/06/29 05:14:50;;;;;;;0.47;0.40;;;;;;;;;;5047817;28;20043;-80
2023/06/29 05:17:17;;;;;;;0.40;0.30;;;;;;;;;;5067656;28;20040;-79
2023/06/29 05:19:43;;;;;;;0.73;0.50;;;;;;;;;;5029572;28;20095;-77
2023/06/29 05:22:09;;;;;;;3.67;0.93;;;;;;;;;;5037045;28;20059;-79
2023/06/29 05:24:37;;;;;;;0.55;0.30;;;;;;;;;;5039910;28;20045;-80
2023/06/29 05:27:03;;;;;;;0.70;0.70;;;;;;;;;;5043322;28;20048;-79
2023/06/29 05:29:29;;;;;;;0.68;0.68;;;;;;;;;;5051028;28;20127;-78
2023/06/29 05:31:55;;;;;;;0.55;0.50;;;;;;;;;;5035716;28;20127;-78
2023/06/29 05:34:21;;;;;;;0.65;0.65;;;;;;;;;;5042237;28;20041;-78
2023/06/29 05:36:47;;;;;;;0.65;0.20;;;;;;;;;;5016277;28;20044;-80
2023/06/29 05:39:13;;;;;;;1.05;0.52;;;;;;;;;;5047488;28;20673;-78
2023/06/29 05:41:39;;;;;;;0.75;0.40;;;;;;;;;;5032441;28;20035;-79
2023/06/29 05:44:09;;;;;;;0.43;0.43;;;;;;;;;;5027375;28;20047;-81
2023/06/29 05:46:35;;;;;;;0.20;0.13;;;;;;;;;;5047120;28;20138;-82
2023/06/29 05:49:01;;;;;;;1.60;0.75;;;;;;;;;;5052141;28;20524;-80
2023/06/29 05:51:27;;;;;;;0.50;0.50;;;;;;;;;;5048133;28;20053;-81
2023/06/29 05:53:53;;;;;;;0.57;0.57;;;;;;;;;;5031169;28;20041;-81
2023/06/29 05:56:19;;;;;;;2.38;0.82;;;;;;;;;;5033788;28;20412;-79
2023/06/29 05:58:46;;;;;;;0.28;0.28;;;;;;;;;;5029551;28;20086;-80
2023/06/29 06:01:13;;;;;;;0.40;0.40;;;;;;;;;;5038591;28;20054;-80
2023/06/29 06:03:39;;;;;;;0.73;0.63;;;;;;;;;;5058325;28;20040;-80
2023/06/29 06:06:06;;;;;;;0.63;0.43;;;;;;;;;;5062319;28;20040;-82
2023/06/29 06:08:32;;;;;;;0.30;0.30;;;;;;;;;;5030324;28;20041;-81
2023/06/29 06:10:58;;;;;;;0.85;0.85;;;;;;;;;;5053297;28;20045;-80
2023/06/29 06:13:24;;;;;;;0.70;0.70;;;;;;;;;;5051645;28;20082;-79
2023/06/29 06:15:50;;;;;;;0.30;0.30;;;;;;;;;;5051445;28;20044;-81
2023/06/29 06:18:16;;;;;;;0.28;0.22;;;;;;;;;;5058032;28;20040;-80
2023/06/29 06:20:42;;;;;;;0.20;0.20;;;;;;;;;;5064301;28;20397;-80
2023/06/29 06:23:08;;;;;;;0.95;0.60;;;;;;;;;;5045932;28;20048;-78
2023/06/29 06:25:34;;;;;;;0.80;0.77;;;;;;;;;;5044367;28;21839;-78
2023/06/29 06:28:00;;;;;;;0.45;0.20;;;;;;;;;;5057251;28;20048;-79
2023/06/29 06:30:26;;;;;;;0.20;0.20;;;;;;;;;;5035955;28;21132;-80
2023/06/29 06:32:52;;;;;;;0.50;0.50;;;;;;;;;;5038807;28;20408;-81
2023/06/29 06:35:19;;;;;;;0.40;0.40;;;;;;;;;;5034830;28;20040;-81
2023/06/29 06:37:45;;;;;;;0.70;0.70;;;;;;;;;;5054223;28;20520;-82
2023/06/29 06:40:11;;;;;;;0.50;0.50;;;;;;;;;;5035341;28;20116;-81
2023/06/29 06:42:38;;;;;;;1.17;0.85;;;;;;;;;;5061962;28;20079;-80
2023/06/29 06:45:05;;;;;;;0.25;0.20;;;;;;;;;;5035625;28;20037;-81
2023/06/29 06:47:31;;;;;;;1.05;0.93;;;;;;;;;;5045541;28;20867;-81
2023/06/29 06:49:57;;;;;;;0.35;0.35;;;;;;;;;;5051638;28;20127;-80
2023/06/29 06:52:23;;;;;;;0.47;0.43;;;;;;;;;;5045137;28;20044;-80
2023/06/29 06:54:50;;;;;;;0.77;0.77;;;;;;;;;;5039198;28;20044;-82
2023/06/29 06:57:16;;;;;;;0.55;0.55;;;;;;;;;;5047682;28;20063;-83
2023/06/29 06:59:42;;;;;;;0.30;0.25;;;;;;;;;;5046389;28;20028;-81
2023/06/29 07:02:09;;;;;;;0.30;0.30;;;;;;;;;;5064351;28;20130;-81
2023/06/29 07:04:35;;;;;;;0.30;0.25;;;;;;;;;;5023338;28;20341;-82
2023/06/29 07:07:01;;;;;;;1.15;0.85;;;;;;;;;;5040829;28;20037;-80
2023/06/29 07:09:27;;;;;;;0.30;0.30;;;;;;;;;;5038650;28;20044;-81
2023/06/29 07:11:53;;;;;;;0.28;0.28;;;;;;;;;;5050339;28;20518;-81
2023/06/29 07:14:21;;;;;;;0.30;0.30;;;;;;;;;;5049215;28;20033;-80
2023/06/29 07:16:47;;;;;;;0.45;0.43;;;;;;;;;;5067810;22;20116;-84
2023/06/29 07:19:14;;;;;;;0.73;0.57;;;;;;;;;;5005692;28;20045;-83
2023/06/29 07:21:40;;;;;;;0.82;0.77;;;;;;;;;;4995305;28;20067;-84
2023/06/29 07:24:07;;;;;;;1.20;0.93;;;;;;;;;;4997870;28;20036;-86
2023/06/29 07:26:33;;;;;;;0.43;0.43;;;;;;;;;;4996256;28;20057;-85
2023/06/29 07:28:59;;;;;;;0.20;0.10;;;;;;;;;;4997634;28;20041;-85
2023/06/29 07:31:25;;;;;;;0.20;0.10;;;;;;;;;;4985968;28;20494;-86
2023/06/29 07:33:53;;;;;;;0.30;0.20;;;;;;;;;;5003439;28;20105;-83
2023/06/29 07:36:19;;;;;;;0.73;0.73;;;;;;;;;;4994060;28;20242;-84
2023/06/29 07:38:45;;;;;;;0.30;0.30;;;;;;;;;;4997596;28;20037;-84
2023/06/29 07:41:12;;;;;;;0.77;0.70;;;;;;;;;;4983776;28;20661;-84
2023/06/29 07:43:40;;;;;;;0.30;0.20;;;;;;;;;;4985264;28;20048;-83
2023/06/29 07:46:06;;;;;;;0.45;0.30;;;;;;;;;;4984348;28;20091;-85
2023/06/29 07:48:32;;;;;;;0.50;0.40;;;;;;;;;;4978457;28;20136;-83
2023/06/29 07:50:58;;;;;;;0.50;0.40;;;;;;;;;;4990339;28;20037;-83
2023/06/29 07:53:24;;;;;;;0.20;0.20;;;;;;;;;;4979007;28;20256;-84
2023/06/29 07:55:50;;;;;;;1.50;0.82;;;;;;;;;;5000183;28;20037;-85
2023/06/29 07:58:16;;;;;;;0.20;0.20;;;;;;;;;;4986225;28;20042;-83
2023/06/29 08:00:42;;;;;;;0.30;0.25;;;;;;;;;;4979302;28;20563;-84
2023/06/29 08:03:08;;;;;;;0.30;0.30;;;;;;;;;;5001238;28;20045;-83
2023/06/29 08:05:34;;;;;;;0.20;0.20;;;;;;;;;;4984215;28;20218;-85
2023/06/29 08:08:00;;;;;;;1.58;0.47;;;;;;;;;;4984411;28;20042;-83
2023/06/29 08:10:26;;;;;;;2.05;1.25;;;;;;;;;;4982143;28;20045;-84
2023/06/29 08:12:52;;;;;;;1.50;0.52;;;;;;;;;;4999974;28;20049;-84
2023/06/29 08:15:19;;;;;;;0.50;0.50;;;;;;;;;;4986421;28;20111;-84
2023/06/29 08:17:45;;;;;;;0.63;0.30;;;;;;;;;;4981516;28;20037;-82
2023/06/29 08:20:12;;;;;;;0.20;0.20;;;;;;;;;;4985834;28;20069;-80
2023/06/29 08:22:38;;;;;;;0.40;0.40;;;;;;;;;;4984228;28;20095;-82
2023/06/29 08:25:05;;;;;;;0.30;0.30;;;;;;;;;;4986402;28;20068;-81
2023/06/29 08:27:31;;;;;;;1.08;0.98;;;;;;;;;;4985839;28;20067;-80
2023/06/29 08:29:57;;;;;;;0.65;0.57;;;;;;;;;;5001910;28;20041;-80
2023/06/29 08:32:23;;;;;;;1.35;0.68;;;;;;;;;;5000071;28;20037;-82
2023/06/29 08:34:49;;;;;;;1.25;0.55;;;;;;;;;;4983458;28;20358;-80
2023/06/29 08:37:15;;;;;;;0.65;0.65;;;;;;;;;;5023076;28;20049;-80
2023/06/29 08:39:41;;;;;;;0.95;0.77;;;;;;;;;;5013379;28;20033;-80
2023/06/29 08:42:08;;;;;;;0.98;0.55;;;;;;;;;;5003046;28;20564;-83
2023/06/29 08:44:34;;;;;;;1.35;1.25;;;;;;;;;;4991917;28;20143;-83
2023/06/29 08:47:01;;;;;;;0.73;0.65;;;;;;;;;;5001561;28;20053;-83
2023/06/29 08:49:28;;;;;;;1.30;0.80;;;;;;;;;;5001084;28;20051;-84
2023/06/29 08:51:58;;;;;;;0.50;0.40;;;;;;;;;;5003460;28;20034;-80
2023/06/29 08:54:31;;;;;;;0.82;0.73;;;;;;;;;;4983986;28;20033;-82
2023/06/29 08:56:57;;;;;;;0.20;0.20;;;;;;;;;;4980039;28;20045;-79
2023/06/29 08:59:23;;;;;;;0.80;0.80;;;;;;;;;;4988739;28;20033;-81
2023/06/29 09:01:50;;;;;;;0.60;0.55;;;;;;;;;;5002836;28;20519;-80
2023/06/29 09:04:16;;;;;;;0.35;0.35;;;;;;;;;;4984066;28;20055;-81
2023/06/29 09:06:42;;;;;;;0.32;0.30;;;;;;;;;;4987283;28;20068;-80
2023/06/29 09:09:08;;;;;;;0.30;0.30;;;;;;;;;;5004749;28;20150;-80
2023/06/29 09:11:35;;;;;;;1.27;0.57;;;;;;;;;;4982273;28;20041;-81
2023/06/29 09:14:06;;;;;;;0.45;0.45;;;;;;;;;;4984770;28;20088;-82
2023/06/29 09:16:34;;;;;;;0.85;0.85;;;;;;;;;;5000391;28;20504;-81
2023/06/29 09:19:00;;;;;;;0.57;0.57;;;;;;;;;;5000758;28;20409;-82
2023/06/29 09:21:28;;;;;;;0.80;0.50;;;;;;;;;;4987413;28;20060;-80
2023/06/29 09:23:58;;;;;;;1.30;1.20;;;;;;;;;;4995609;28;20041;-81
2023/06/29 09:26:28;;;;;;;0.98;0.98;;;;;;;;;;5001040;28;20172;-83
2023/06/29 09:29:00;;;;;;;0.68;0.68;;;;;;;;;;4989587;28;20076;-83
2023/06/29 09:31:28;;;;;;;1.35;0.70;;;;;;;;;;5005077;28;20083;-82
2023/06/29 09:33:54;;;;;;;0.43;0.43;;;;;;;;;;4977456;28;20096;-84
2023/06/29 09:36:25;;;;;;;0.20;0.20;;;;;;;;;;4995845;28;20375;-79
2023/06/29 09:38:52;;;;;;;1.85;1.67;;;;;;;;;;4980031;28;20385;-82
2023/06/29 09:41:18;;;;;;;3.13;1.05;;;;;;;;;;4994488;28;20342;-82
2023/06/29 09:43:45;;;;;;;0.55;0.55;;;;;;;;;;5005688;28;20045;-81
2023/06/29 09:46:12;;;;;;;0.30;0.20;;;;;;;;;;4983215;28;20045;-82
2023/06/29 09:48:48;;;;;;;1.10;0.50;;;;;;;;;;5002011;28;20404;-83
2023/06/29 09:51:21;;;;;;;1.48;1.38;;;;;;;;;;4980542;28;20045;-83
2023/06/29 09:53:47;;;;;;;0.90;0.68;;;;;;;;;;4998215;28;20076;-81
2023/06/29 09:56:13;;;;;;;1.27;0.68;;;;;;;;;;5005313;28;20087;-81
2023/06/29 09:58:39;;;;;;;0.82;0.82;;;;;;;;;;4980470;28;20041;-77
2023/06/29 10:01:05;;;;;;;2.83;1.35;;;;;;;;;;4996464;28;20096;-81
2023/06/29 10:03:32;;;;;;;0.43;0.43;;;;;;;;;;5003655;28;20041;-80
2023/06/29 10:06:01;;;;;;;1.77;1.48;;;;;;;;;;5003770;28;20914;-81
2023/06/29 10:08:28;;;;;;;0.80;0.70;;;;;;;;;;5013932;28;20052;-79
2023/06/29 10:10:57;;;;;;;0.30;0.30;;;;;;;;;;4974067;28;20049;-80
2023/06/29 10:13:24;;;;;;;2.15;0.98;;;;;;;;;;4999549;28;20060;-81
2023/06/29 10:15:52;;;;;;;1.40;1.13;;;;;;;;;;5002749;28;20544;-81
2023/06/29 10:18:27;;;;;;;1.27;0.55;;;;;;;;;;4993296;28;20041;-81
2023/06/29 10:20:53;;;;;;;1.15;1.13;;;;;;;;;;5005278;28;20045;-80
2023/06/29 10:23:20;;;;;;;0.93;0.90;;;;;;;;;;5006180;28;20524;-81
2023/06/29 10:25:48;;;;;;;1.00;0.82;;;;;;;;;;5002229;28;20136;-80
2023/06/29 10:28:15;;;;;;;1.20;0.60;;;;;;;;;;5004253;28;20093;-79
2023/06/29 10:30:45;;;;;;;1.77;0.85;;;;;;;;;;5013631;28;20037;-80
2023/06/29 10:33:11;;;;;;;0.43;0.43;;;;;;;;;;4998109;28;20187;-83
2023/06/29 10:35:37;;;;;;;0.68;0.45;;;;;;;;;;5003040;28;20056;-80
2023/06/29 10:38:13;;;;;;;0.50;0.47;;;;;;;;;;4978797;28;20048;-83
2023/06/29 10:40:47;;;;;;;1.73;0.85;;;;;;;;;;4988944;28;20060;-81
2023/06/29 10:43:13;;;;;;;0.68;0.57;;;;;;;;;;5004607;28;20118;-80
2023/06/29 10:45:40;;;;;;;0.75;0.75;;;;;;;;;;4982082;28;20639;-82
2023/06/29 10:48:07;;;;;;;0.45;0.45;;;;;;;;;;4998838;28;20047;-82
2023/06/29 10:50:37;;;;;;;0.60;0.60;;;;;;;;;;5000614;28;20668;-80
2023/06/29 10:53:03;;;;;;;0.43;0.22;;;;;;;;;;5001594;28;20054;-80
2023/06/29 10:55:43;;;;;;;0.50;0.50;;;;;;;;;;4988681;28;20592;-80
2023/06/29 10:58:14;;;;;;;0.55;0.45;;;;;;;;;;4985356;28;20624;-81
2023/06/29 11:00:40;;;;;;;0.20;0.10;;;;;;;;;;4983708;28;20096;-81
2023/06/29 11:03:06;;;;;;;0.20;0.20;;;;;;;;;;4988323;28;20307;-81
2023/06/29 11:05:34;;;;;;;0.75;0.75;;;;;;;;;;5002117;28;21675;-84
2023/06/29 11:08:00;;;;;;;0.75;0.75;;;;;;;;;;4982774;28;20037;-84
2023/06/29 11:10:26;;;;;;;0.73;0.73;;;;;;;;;;4987667;28;20108;-81
2023/06/29 11:12:54;;;;;;;0.93;0.43;;;;;;;;;;5006183;28;20045;-82
2023/06/29 11:15:21;;;;;;;0.60;0.52;;;;;;;;;;4986385;28;20091;-82
2023/06/29 11:17:49;;;;;;;3.42;0.80;;;;;;;;;;4999426;28;20041;-81
2023/06/29 11:20:17;;;;;;;0.77;0.57;;;;;;;;;;4984687;28;20108;-82
2023/06/29 11:22:43;;;;;;;0.47;0.38;;;;;;;;;;4987978;28;20042;-81
2023/06/29 11:25:16;;;;;;;0.35;0.35;;;;;;;;;;5003631;28;20037;-83
2023/06/29 11:27:42;;;;;;;1.65;1.38;;;;;;;;;;5009764;28;20668;-81
2023/06/29 11:30:10;;;;;;;0.70;0.60;;;;;;;;;;4999276;28;20603;-81
2023/06/29 11:32:40;;;;;;;0.68;0.68;;;;;;;;;;4999315;28;20052;-80
2023/06/29 11:35:07;;;;;;;0.60;0.60;;;;;;;;;;5003489;28;20787;-84
2023/06/29 11:37:35;;;;;;;0.30;0.30;;;;;;;;;;4975043;28;20208;-81
2023/06/29 11:40:07;;;;;;;1.45;1.35;;;;;;;;;;4999588;28;20045;-80
2023/06/29 11:42:34;;;;;;;1.83;0.85;;;;;;;;;;4990380;28;20049;-84
2023/06/29 11:45:05;;;;;;;0.20;0.20;;;;;;;;;;4988064;28;20050;-80
2023/06/29 11:47:31;;;;;;;0.73;0.73;;;;;;;;;;4998036;28;20045;-81
2023/06/29 11:49:59;;;;;;;0.85;0.85;;;;;;;;;;5002788;28;20463;-80
2023/06/29 11:52:32;;;;;;;0.95;0.88;;;;;;;;;;5003094;28;20064;-82
2023/06/29 11:55:06;;;;;;;2.70;1.67;;;;;;;;;;5001474;28;20073;-80
2023/06/29 11:57:35;;;;;;;0.90;0.65;;;;;;;;;;4984441;28;20332;-81
2023/06/29 12:00:02;;;;;;;0.70;0.70;;;;;;;;;;4989899;28;20030;-83
2023/06/29 12:02:28;;;;;;;0.30;0.30;;;;;;;;;;5005400;28;20053;-81
2023/06/29 12:04:58;;;;;;;0.68;0.68;;;;;;;;;;4986338;28;20060;-80
2023/06/29 12:08:00;;;;;;;0.57;0.57;;;;;;;;;;4985454;28;20422;-79
2023/06/29 12:10:26;;;;;;;0.52;0.43;;;;;;;;;;4956278;28;20152;-82
2023/06/29 12:12:55;;;;;;;0.88;0.88;;;;;;;;;;4993068;28;20057;-83
2023/06/29 12:15:26;;;;;;;1.45;1.35;;;;;;;;;;4976570;28;20049;-79
2023/06/29 12:17:53;;;;;;;0.98;0.88;;;;;;;;;;4999810;28;20084;-82
2023/06/29 12:20:19;;;;;;;0.73;0.73;;;;;;;;;;5001746;28;20511;-81
2023/06/29 12:22:46;;;;;;;0.88;0.70;;;;;;;;;;4985791;28;20079;-81
2023/06/29 12:25:13;;;;;;;1.75;0.85;;;;;;;;;;5000039;28;20042;-82
2023/06/29 12:27:43;;;;;;;0.80;0.57;;;;;;;;;;4985653;28;20041;-81
2023/06/29 12:30:14;;;;;;;1.75;1.27;;;;;;;;;;4983067;28;20513;-80
2023/06/29 12:32:45;;;;;;;1.50;0.73;;;;;;;;;;4984094;28;20065;-81
2023/06/29 12:35:12;;;;;;;0.82;0.77;;;;;;;;;;4999719;28;20042;-81
2023/06/29 12:37:39;;;;;;;2.25;1.08;;;;;;;;;;5002758;28;20062;-81
2023/06/29 12:40:05;;;;;;;0.47;0.47;;;;;;;;;;4998634;28;20091;-82
2023/06/29 12:42:32;;;;;;;0.85;0.60;;;;;;;;;;5002630;28;20041;-82
2023/06/29 12:44:58;;;;;;;0.50;0.40;;;;;;;;;;4992879;28;20047;-78
2023/06/29 12:47:24;;;;;;;0.70;0.60;;;;;;;;;;5002009;28;20116;-80
2023/06/29 12:49:51;;;;;;;0.40;0.40;;;;;;;;;;4990877;28;20047;-81
2023/06/29 12:52:18;;;;;;;0.70;0.63;;;;;;;;;;4990574;28;20150;-82
2023/06/29 12:54:45;;;;;;;1.42;0.68;;;;;;;;;;4992632;28;20510;-82
2023/06/29 12:57:14;;;;;;;0.73;0.50;;;;;;;;;;4987103;28;20025;-81
2023/06/29 12:59:40;;;;;;;1.35;1.00;;;;;;;;;;4999858;28;20505;-80
2023/06/29 13:02:07;;;;;;;0.75;0.75;;;;;;;;;;4992269;28;20154;-80
2023/06/29 13:04:40;;;;;;;0.38;0.38;;;;;;;;;;5001316;28;20629;-81
2023/06/29 13:07:06;;;;;;;0.60;0.60;;;;;;;;;;5000139;28;20037;-83
2023/06/29 13:09:35;;;;;;;0.88;0.85;;;;;;;;;;4986906;28;20041;-82
2023/06/29 13:12:01;;;;;;;0.75;0.63;;;;;;;;;;4999965;28;20042;-79
2023/06/29 13:14:29;;;;;;;0.65;0.65;;;;;;;;;;5000409;28;20133;-79
2023/06/29 13:16:56;;;;;;;0.77;0.60;;;;;;;;;;5001282;28;20457;-82
2023/06/29 13:19:23;;;;;;;0.30;0.30;;;;;;;;;;5041513;23;20056;-82
2023/06/29 13:21:49;;;;;;;1.17;1.08;;;;;;;;;;5031053;28;20048;-81
2023/06/29 13:24:15;;;;;;;0.40;0.30;;;;;;;;;;5018031;28;20041;-82
2023/06/29 13:26:41;;;;;;;1.08;0.52;;;;;;;;;;5020105;28;20100;-82
2023/06/29 13:29:07;;;;;;;0.95;0.70;;;;;;;;;;5006584;28;20045;-84
2023/06/29 13:31:33;;;;;;;0.70;0.70;;;;;;;;;;5009297;28;20040;-82
2023/06/29 13:33:59;;;;;;;0.45;0.45;;;;;;;;;;5027882;28;20043;-83
2023/06/29 13:36:25;;;;;;;0.30;0.30;;;;;;;;;;5015995;28;20085;-84
2023/06/29 13:38:51;;;;;;;0.25;0.25;;;;;;;;;;5018449;28;20045;-82
2023/06/29 13:41:19;;;;;;;1.40;1.00;;;;;;;;;;5015879;28;20044;-81
2023/06/29 13:43:46;;;;;;;1.55;0.45;;;;;;;;;;5020438;28;20044;-83
2023/06/29 13:46:12;;;;;;;0.77;0.43;;;;;;;;;;5023153;28;20045;-83
2023/06/29 13:48:38;;;;;;;0.40;0.25;;;;;;;;;;5019356;28;20140;-83
2023/06/29 13:51:04;;;;;;;0.40;0.40;;;;;;;;;;4989336;28;20096;-83
2023/06/29 13:53:30;;;;;;;0.52;0.50;;;;;;;;;;4994346;28;20140;-84
2023/06/29 13:55:56;;;;;;;1.38;0.68;;;;;;;;;;5019357;28;20395;-81
2023/06/29 13:58:22;;;;;;;1.17;1.02;;;;;;;;;;5009209;28;20606;-84
2023/06/29 14:00:50;;;;;;;0.80;0.80;;;;;;;;;;4998047;28;20497;-83
2023/06/29 14:03:16;;;;;;;0.40;0.28;;;;;;;;;;5011366;28;20059;-85
2023/06/29 14:05:42;;;;;;;1.98;0.70;;;;;;;;;;5019817;28;20037;-83
2023/06/29 14:08:08;;;;;;;0.40;0.30;;;;;;;;;;5014124;28;20133;-84
2023/06/29 14:10:34;;;;;;;0.25;0.20;;;;;;;;;;5001282;28;20053;-83
2023/06/29 14:13:00;;;;;;;1.15;0.95;;;;;;;;;;5011791;28;20117;-82
2023/06/29 14:15:26;;;;;;;1.00;0.98;;;;;;;;;;5011538;28;20339;-84
2023/06/29 14:17:52;;;;;;;0.95;0.77;;;;;;;;;;5011170;28;20048;-83
2023/06/29 14:20:18;;;;;;;1.17;0.75;;;;;;;;;;5018127;28;20041;-85
2023/06/29 14:22:44;;;;;;;0.43;0.43;;;;;;;;;;5009132;28;20042;-82
2023/06/29 14:25:10;;;;;;;1.90;1.10;;;;;;;;;;5022089;28;20096;-85
2023/06/29 14:27:36;;;;;;;0.40;0.40;;;;;;;;;;5006738;28;20041;-87
2023/06/29 14:30:02;;;;;;;0.82;0.52;;;;;;;;;;5028950;28;20052;-81
2023/06/29 14:32:28;;;;;;;0.38;0.38;;;;;;;;;;5003956;28;20048;-83
2023/06/29 14:34:54;;;;;;;1.60;1.48;;;;;;;;;;5011738;28;20049;-85
2023/06/29 14:37:20;;;;;;;0.52;0.52;;;;;;;;;;5012713;28;20394;-82
2023/06/29 14:39:46;;;;;;;1.20;0.82;;;;;;;;;;5000684;28;20076;-86
2023/06/29 14:42:12;;;;;;;0.52;0.52;;;;;;;;;;5008620;28;20359;-86